Time;durP1;ratioP1;P1;durP2;ratioP2;P2;SDS_P1;SDS_P2;PMS_P1;PMS_P2;Temp;Humidity;BMP_temperature;BMP_pressure;BME280_temperature;BME280_humidity;BME280_pressure;Samples;Min_cycle;Max_cycle;Signal;HPM_P1;HPM_P2
2022/10/25 00:01:24;;;;;;;25.40;4.78;;;;;;;13.58;100.00;100989.09;5007942;28;20076;-43
2022/10/25 00:03:50;;;;;;;34.78;6.07;;;;;;;13.58;100.00;101006.13;5011177;28;20465;-42
2022/10/25 00:06:16;;;;;;;30.98;4.90;;;;;;;13.60;100.00;101011.38;5011196;28;20057;-41
2022/10/25 00:08:41;;;;;;;39.17;4.57;;;;;;;13.59;100.00;101005.13;5013307;28;20133;-42
2022/10/25 00:11:08;;;;;;;33.90;3.90;;;;;;;13.60;100.00;101006.78;5009370;28;20139;-43
2022/10/25 00:13:34;;;;;;;34.40;4.10;;;;;;;13.61;100.00;101004.91;5009222;28;20492;-42
2022/10/25 00:15:59;;;;;;;31.10;3.28;;;;;;;13.59;100.00;101004.28;5011781;28;20108;-42
2022/10/25 00:18:24;;;;;;;32.40;3.50;;;;;;;13.57;100.00;101004.47;5010471;28;20040;-41
2022/10/25 00:20:50;;;;;;;25.33;3.38;;;;;;;13.56;100.00;101010.06;5010302;28;20038;-43
2022/10/25 00:23:15;;;;;;;36.38;3.83;;;;;;;13.55;100.00;101013.81;5009124;28;20084;-42
2022/10/25 00:25:41;;;;;;;27.15;3.55;;;;;;;13.55;100.00;101008.41;5009955;28;20127;-42
2022/10/25 00:28:06;;;;;;;28.60;2.72;;;;;;;13.56;100.00;101008.22;5020001;28;20032;-42
2022/10/25 00:30:32;;;;;;;36.30;4.47;;;;;;;13.55;100.00;101009.25;5009504;28;20580;-42
2022/10/25 00:32:57;;;;;;;30.48;4.10;;;;;;;13.54;100.00;101014.88;5009157;28;20049;-43
2022/10/25 00:35:23;;;;;;;26.60;2.97;;;;;;;13.53;100.00;101015.88;5009860;28;20557;-41
2022/10/25 00:37:49;;;;;;;24.92;2.72;;;;;;;13.51;100.00;101017.97;5009034;28;20108;-41
2022/10/25 00:40:15;;;;;;;28.83;3.13;;;;;;;13.49;100.00;101014.63;5009933;28;20057;-41
2022/10/25 00:42:40;;;;;;;32.75;3.45;;;;;;;13.47;100.00;101017.50;5010392;28;20099;-42
2022/10/25 00:45:18;;;;;;;32.97;3.42;;;;;;;13.48;100.00;101016.50;5010381;28;20033;-42
2022/10/25 00:47:54;;;;;;;39.60;3.97;;;;;;;13.46;100.00;101023.13;5006465;28;20120;-42
2022/10/25 00:50:25;;;;;;;32.28;3.78;;;;;;;13.45;100.00;101035.78;5007916;28;20037;-42
2022/10/25 00:52:52;;;;;;;29.40;3.30;;;;;;;13.45;100.00;101033.09;5008986;28;20044;-43
2022/10/25 00:55:19;;;;;;;29.58;2.72;;;;;;;13.44;100.00;101027.88;5008204;28;20048;-42
2022/10/25 00:57:51;;;;;;;36.60;4.30;;;;;;;13.48;100.00;101030.00;5012015;28;20038;-41
2022/10/25 01:00:16;;;;;;;39.10;3.92;;;;;;;13.50;100.00;101032.50;5006994;28;20503;-42
2022/10/25 01:02:41;;;;;;;40.40;4.45;;;;;;;13.50;100.00;101035.22;5009284;28;20022;-43
2022/10/25 01:05:08;;;;;;;40.42;4.72;;;;;;;13.50;100.00;101027.09;5010734;28;20029;-43
2022/10/25 01:07:34;;;;;;;47.08;4.80;;;;;;;13.50;100.00;101038.75;5010366;28;20109;-42
2022/10/25 01:09:59;;;;;;;48.97;3.80;;;;;;;13.49;100.00;101030.84;5009175;28;20518;-43
2022/10/25 01:12:25;;;;;;;41.90;3.75;;;;;;;13.50;100.00;101035.22;5009634;28;20049;-41
2022/10/25 01:14:51;;;;;;;31.05;3.78;;;;;;;13.49;100.00;101033.53;5006559;28;20041;-41
2022/10/25 01:17:33;;;;;;;43.30;4.20;;;;;;;13.49;100.00;101030.84;5007157;28;20544;-41
2022/10/25 01:20:18;;;;;;;31.25;3.47;;;;;;;13.49;100.00;101042.50;5009450;28;20044;-42
2022/10/25 01:23:00;;;;;;;30.63;3.00;;;;;;;13.52;100.00;101035.84;5008986;28;20116;-41
2022/10/25 01:25:44;;;;;;;38.90;4.25;;;;;;;13.49;100.00;101041.66;5007199;28;20092;-44
2022/10/25 01:28:29;;;;;;;44.72;4.68;;;;;;;13.52;100.00;101043.97;5008747;28;20037;-43
2022/10/25 01:30:58;;;;;;;31.05;2.97;;;;;;;13.52;100.00;101046.66;5007818;28;20105;-43
2022/10/25 01:33:43;;;;;;;49.75;4.68;;;;;;;13.51;100.00;101042.31;5022678;28;20405;-42
2022/10/25 01:36:17;;;;;;;36.10;3.47;;;;;;;13.50;100.00;101043.31;4998228;28;20080;-41
2022/10/25 01:39:20;;;;;;;60.58;4.72;;;;;;;13.49;100.00;101052.47;5010628;28;20038;-42
2022/10/25 01:42:00;;;;;;;46.22;4.15;;;;;;;13.47;100.00;101051.81;5010133;28;20121;-42
2022/10/25 01:44:56;;;;;;;33.47;4.50;;;;;;;13.48;100.00;101045.38;5010704;28;20448;-43
2022/10/25 01:47:25;;;;;;;47.85;4.05;;;;;;;13.49;100.00;101057.88;5007751;28;20088;-43
2022/10/25 01:50:06;;;;;;;41.55;4.43;;;;;;;13.49;100.00;101049.78;5008662;28;20029;-42
2022/10/25 01:52:31;;;;;;;38.05;5.72;;;;;;;13.48;100.00;101050.78;5018231;28;20022;-42
2022/10/25 01:54:57;;;;;;;29.83;4.03;;;;;;;13.51;100.00;101058.53;5008494;28;20419;-43
2022/10/25 01:58:07;;;;;;;38.90;5.68;;;;;;;13.52;100.00;101061.03;5012094;28;20112;-41
2022/10/25 02:00:40;;;;;;;52.42;5.60;;;;;;;13.46;100.00;101066.38;4944604;28;20046;-39
2022/10/25 02:03:08;;;;;;;65.32;5.78;;;;;;;13.41;100.00;101072.38;4928797;29;20056;-43
2022/10/25 02:05:40;;;;;;;33.60;4.85;;;;;;;13.36;100.00;101074.81;4967725;28;20432;-45
2022/10/25 02:08:35;;;;;;;54.08;5.90;;;;;;;13.35;100.00;101083.97;5064901;22;20058;-78
2022/10/25 02:11:05;;;;;;;52.15;6.57;;;;;;;13.31;100.00;101075.41;5029828;28;20037;-80
2022/10/25 02:13:32;;;;;;;57.97;5.40;;;;;;;13.27;100.00;101082.25;5025807;28;20022;-82
2022/10/25 02:16:04;;;;;;;34.88;4.40;;;;;;;13.23;100.00;101083.63;5030550;28;20037;-80
2022/10/25 02:18:33;;;;;;;41.90;5.57;;;;;;;13.16;100.00;101096.22;5024810;28;20021;-81
2022/10/25 02:20:59;;;;;;;35.25;3.45;;;;;;;13.11;100.00;101098.66;5030122;28;20041;-80
2022/10/25 02:23:25;;;;;;;44.85;3.92;;;;;;;13.09;100.00;101098.03;5030227;28;20030;-80
2022/10/25 02:25:51;;;;;;;46.33;4.95;;;;;;;13.07;100.00;101097.38;5031325;28;20037;-80
2022/10/25 02:28:18;;;;;;;36.97;3.55;;;;;;;13.06;100.00;101095.69;5030053;28;20486;-80
2022/10/25 02:30:44;;;;;;;33.70;3.92;;;;;;;13.04;100.00;101105.88;5030479;28;20033;-80
2022/10/25 02:33:09;;;;;;;35.00;3.50;;;;;;;13.03;100.00;101091.50;5029024;28;20030;-80
2022/10/25 02:35:35;;;;;;;42.42;3.58;;;;;;;13.03;100.00;101102.31;5027808;28;20029;-79
2022/10/25 02:38:01;;;;;;;47.85;4.03;;;;;;;13.03;100.00;101101.47;5030471;28;20104;-79
2022/10/25 02:40:26;;;;;;;44.30;4.28;;;;;;;13.04;100.00;101103.19;5029226;28;20144;-80
2022/10/25 02:42:52;;;;;;;34.10;3.50;;;;;;;13.08;100.00;101104.44;5028573;28;20393;-80
2022/10/25 02:45:17;;;;;;;54.92;4.55;;;;;;;13.11;100.00;101104.06;5031213;28;20025;-80
2022/10/25 02:47:43;;;;;;;42.88;3.58;;;;;;;13.13;100.00;101107.41;5034502;28;20029;-81
2022/10/25 02:50:08;;;;;;;49.80;4.15;;;;;;;13.11;100.00;101114.88;5034468;28;20029;-81
2022/10/25 02:52:33;;;;;;;46.50;4.07;;;;;;;13.11;100.00;101104.06;5029615;28;20026;-79
2022/10/25 02:54:59;;;;;;;49.65;4.10;;;;;;;13.11;100.00;101109.47;5033091;28;20179;-80
2022/10/25 02:57:24;;;;;;;45.78;4.82;;;;;;;13.10;100.00;101113.22;5033268;28;20112;-80
2022/10/25 02:59:49;;;;;;;70.38;5.18;;;;;;;13.09;100.00;101117.78;5033942;28;20040;-79
2022/10/25 03:02:15;;;;;;;50.45;4.28;;;;;;;13.09;100.00;101112.38;5030262;28;20449;-79
2022/10/25 03:04:40;;;;;;;38.00;4.25;;;;;;;13.06;100.00;101114.59;5021147;28;20083;-80
2022/10/25 03:07:06;;;;;;;49.92;5.55;;;;;;;13.05;100.00;101131.84;5033563;28;20041;-79
2022/10/25 03:09:31;;;;;;;56.78;6.38;;;;;;;13.03;100.00;101125.81;5034066;28;20030;-82
2022/10/25 03:11:56;;;;;;;48.40;4.68;;;;;;;13.00;100.00;101124.31;5032048;28;20112;-80
2022/10/25 03:14:22;;;;;;;40.28;3.80;;;;;;;13.00;100.00;101129.72;5034678;28;20440;-81
2022/10/25 03:16:47;;;;;;;40.67;3.65;;;;;;;12.96;100.00;101123.88;5039330;28;20037;-81
2022/10/25 03:19:12;;;;;;;37.97;3.42;;;;;;;12.95;100.00;101138.44;5033682;28;20056;-81
2022/10/25 03:21:38;;;;;;;30.48;3.15;;;;;;;12.95;100.00;101132.16;5032627;28;20099;-79
2022/10/25 03:24:04;;;;;;;41.90;3.35;;;;;;;12.94;100.00;101136.72;5032819;28;20068;-80
2022/10/25 03:26:30;;;;;;;42.17;4.70;;;;;;;12.93;100.00;101139.63;5032726;28;20473;-79
2022/10/25 03:28:55;;;;;;;32.53;3.58;;;;;;;12.93;100.00;101137.75;5035373;28;20040;-80
2022/10/25 03:31:20;;;;;;;39.88;4.00;;;;;;;12.92;100.00;101135.25;5036477;28;20029;-80
2022/10/25 03:33:46;;;;;;;33.72;3.40;;;;;;;12.92;100.00;101136.06;5037441;28;20382;-79
2022/10/25 03:36:13;;;;;;;38.58;4.13;;;;;;;12.92;100.00;101144.19;5036991;28;20039;-80
2022/10/25 03:38:38;;;;;;;36.15;3.33;;;;;;;12.93;100.00;101145.88;5037973;28;20025;-80
2022/10/25 03:41:04;;;;;;;35.17;4.60;;;;;;;12.93;100.00;101153.97;5033415;28;20044;-80
2022/10/25 03:43:29;;;;;;;22.30;3.00;;;;;;;12.92;100.00;101159.56;5023460;28;20045;-80
2022/10/25 03:45:55;;;;;;;37.65;4.55;;;;;;;12.92;100.00;101162.25;5035328;28;20025;-79
2022/10/25 03:48:20;;;;;;;29.25;2.85;;;;;;;12.91;100.00;101160.59;5037666;28;20091;-80
2022/10/25 03:50:46;;;;;;;18.02;2.97;;;;;;;12.88;100.00;101164.50;5042459;28;20049;-80
2022/10/25 03:53:11;;;;;;;30.77;3.50;;;;;;;12.87;100.00;101152.00;5043763;28;20037;-81
2022/10/25 03:55:37;;;;;;;38.17;4.40;;;;;;;12.85;100.00;101164.91;5038098;28;20163;-81
2022/10/25 03:58:02;;;;;;;31.55;3.70;;;;;;;12.81;100.00;101163.59;5039831;28;20037;-80
2022/10/25 04:00:28;;;;;;;49.55;3.88;;;;;;;12.80;100.00;101167.31;5028791;28;20017;-81
2022/10/25 04:02:54;;;;;;;46.42;4.80;;;;;;;12.80;100.00;101161.09;5036986;28;20095;-80
2022/10/25 04:05:20;;;;;;;48.10;5.30;;;;;;;12.79;100.00;101165.63;5040395;28;20100;-84
2022/10/25 04:07:45;;;;;;;35.83;5.32;;;;;;;12.80;100.00;101161.94;5038904;28;20041;-82
2022/10/25 04:10:10;;;;;;;40.00;5.22;;;;;;;12.80;100.00;101161.94;5043146;28;20035;-80
2022/10/25 04:12:36;;;;;;;43.22;5.55;;;;;;;12.81;100.00;101168.16;5040796;28;20068;-81
2022/10/25 04:15:01;;;;;;;55.63;5.60;;;;;;;12.84;100.00;101171.31;5039224;28;20026;-83
2022/10/25 04:17:26;;;;;;;40.05;5.40;;;;;;;12.89;100.00;101174.28;5044547;28;20041;-80
2022/10/25 04:19:52;;;;;;;53.60;5.30;;;;;;;12.91;100.00;101184.91;5041882;28;20043;-82
2022/10/25 04:22:17;;;;;;;45.85;5.93;;;;;;;12.94;100.00;101192.63;5036922;28;20052;-82
2022/10/25 04:24:42;;;;;;;49.13;6.18;;;;;;;12.95;100.00;101186.19;5040016;28;20047;-82
2022/10/25 04:27:08;;;;;;;58.15;6.35;;;;;;;12.95;100.00;101188.88;5040631;28;20033;-82
2022/10/25 04:29:33;;;;;;;41.40;6.10;;;;;;;12.94;100.00;101201.56;5037763;28;20049;-82
2022/10/25 04:31:58;;;;;;;56.85;5.95;;;;;;;12.94;100.00;101201.56;5040995;28;20086;-82
2022/10/25 04:34:24;;;;;;;52.28;6.50;;;;;;;12.95;100.00;101203.25;5043810;28;20055;-81
2022/10/25 04:36:49;;;;;;;56.65;7.68;;;;;;;12.97;100.00;101208.47;5039669;28;20033;-83
2022/10/25 04:39:15;;;;;;;65.88;9.00;;;;;;;12.96;100.00;101198.69;5039792;28;20048;-82
2022/10/25 04:41:40;;;;;;;50.83;7.15;;;;;;;12.94;100.00;101208.84;5046304;28;20099;-79
2022/10/25 04:44:05;;;;;;;52.88;7.25;;;;;;;12.91;100.00;101211.91;5038844;28;20029;-79
2022/10/25 04:46:31;;;;;;;60.88;7.43;;;;;;;12.89;100.00;101214.81;5031564;28;20033;-80
2022/10/25 04:48:56;;;;;;;63.05;6.10;;;;;;;12.89;100.00;101231.00;5033698;28;20029;-79
2022/10/25 04:51:21;;;;;;;46.53;6.32;;;;;;;12.87;100.00;101227.66;5040013;28;20022;-80
2022/10/25 04:53:47;;;;;;;45.25;6.20;;;;;;;12.87;100.00;101227.66;5046808;28;20029;-79
2022/10/25 04:56:15;;;;;;;61.47;7.68;;;;;;;12.84;100.00;101230.72;5036879;28;20064;-80
2022/10/25 04:58:40;;;;;;;52.00;6.38;;;;;;;12.83;100.00;101229.06;5014882;28;20444;-80
2022/10/25 05:01:08;;;;;;;66.60;8.43;;;;;;;12.81;100.00;101233.81;5032322;28;20033;-78
2022/10/25 05:03:34;;;;;;;60.35;7.40;;;;;;;12.79;100.00;101235.03;5029291;28;20107;-79
2022/10/25 05:06:24;;;;;;;56.90;6.00;;;;;;;12.75;100.00;101239.97;5014432;28;20041;-79
2022/10/25 05:08:50;;;;;;;57.25;5.85;;;;;;;12.70;100.00;101239.69;5026618;28;20119;-79
2022/10/25 05:11:18;;;;;;;50.17;6.38;;;;;;;12.66;100.00;101239.19;5029570;28;20037;-78
2022/10/25 05:13:44;;;;;;;61.72;7.75;;;;;;;12.64;100.00;101243.16;5029998;28;20021;-79
2022/10/25 05:16:15;;;;;;;55.55;5.80;;;;;;;12.64;100.00;101248.53;5030650;28;20109;-79
2022/10/25 05:18:41;;;;;;;53.83;6.57;;;;;;;12.63;100.00;101252.25;5031132;28;20112;-78
2022/10/25 05:21:08;;;;;;;42.40;5.63;;;;;;;12.61;100.00;101254.28;5031831;28;20429;-80
2022/10/25 05:23:34;;;;;;;64.15;6.40;;;;;;;12.58;100.00;101260.91;5035089;28;20029;-80
2022/10/25 05:26:06;;;;;;;39.38;6.03;;;;;;;12.57;100.00;101259.22;5030332;28;20071;-80
2022/10/25 05:28:33;;;;;;;44.70;6.18;;;;;;;12.55;100.00;101266.66;5025733;28;20036;-80
2022/10/25 05:31:14;;;;;;;49.50;6.72;;;;;;;12.54;100.00;101269.56;5033003;28;20036;-79
2022/10/25 05:33:40;;;;;;;48.58;6.97;;;;;;;12.52;100.00;101267.03;5034003;28;20112;-79
2022/10/25 05:36:06;;;;;;;47.03;6.05;;;;;;;12.52;100.00;101280.53;5030757;28;20076;-78
2022/10/25 05:38:31;;;;;;;44.63;7.00;;;;;;;12.49;100.00;101273.66;5031979;28;20514;-79
2022/10/25 05:40:59;;;;;;;62.33;7.78;;;;;;;12.48;100.00;101272.00;5031027;28;20108;-80
2022/10/25 05:43:25;;;;;;;39.47;6.53;;;;;;;12.48;100.00;101277.38;5032954;28;20036;-82
2022/10/25 05:45:51;;;;;;;43.90;6.10;;;;;;;12.45;100.00;101272.34;5031927;28;20442;-80
2022/10/25 05:48:17;;;;;;;41.40;6.18;;;;;;;12.43;100.00;101274.41;5032554;28;20048;-80
2022/10/25 05:50:43;;;;;;;35.63;7.10;;;;;;;12.39;100.00;101273.06;5019142;28;20028;-80
2022/10/25 05:53:09;;;;;;;39.55;7.80;;;;;;;12.35;100.00;101281.72;5031907;28;20458;-81
2022/10/25 05:55:35;;;;;;;47.58;8.48;;;;;;;12.35;100.00;101276.31;5030082;28;20045;-80
2022/10/25 05:58:00;;;;;;;47.83;8.02;;;;;;;12.32;100.00;101276.69;5031696;28;20056;-81
2022/10/25 06:00:26;;;;;;;48.25;8.43;;;;;;;12.31;100.00;101292.03;5032500;28;20645;-82
2022/10/25 06:02:51;;;;;;;30.40;7.03;;;;;;;12.27;100.00;101286.19;5032774;28;20470;-81
2022/10/25 06:05:16;;;;;;;44.08;7.88;;;;;;;12.23;100.00;101284.03;5032044;28;20199;-80
2022/10/25 06:07:42;;;;;;;48.08;8.75;;;;;;;12.22;100.00;101290.47;5029230;28;20124;-82
2022/10/25 06:10:08;;;;;;;40.08;7.68;;;;;;;12.18;100.00;101294.53;5032475;28;20064;-82
2022/10/25 06:12:33;;;;;;;58.95;8.77;;;;;;;12.16;100.00;101286.59;5033811;28;20033;-80
2022/10/25 06:14:59;;;;;;;43.45;8.70;;;;;;;12.12;100.00;101288.00;5031628;28;20397;-82
2022/10/25 06:17:24;;;;;;;43.53;9.32;;;;;;;12.10;100.00;101287.34;5035077;28;20044;-80
2022/10/25 06:19:49;;;;;;;38.90;7.97;;;;;;;12.07;100.00;101291.22;5033843;28;20024;-81
2022/10/25 06:22:14;;;;;;;44.40;8.48;;;;;;;12.05;100.00;101287.88;5037045;28;20107;-81
2022/10/25 06:24:40;;;;;;;47.78;9.10;;;;;;;12.05;100.00;101295.13;5037092;28;20099;-81
2022/10/25 06:27:05;;;;;;;64.35;10.95;;;;;;;12.04;100.00;101302.38;5043175;28;20079;-80
2022/10/25 06:29:31;;;;;;;56.65;11.25;;;;;;;12.04;100.00;101304.25;5044887;28;20022;-80
2022/10/25 06:31:57;;;;;;;54.72;10.93;;;;;;;12.06;100.00;101305.75;5038210;28;20424;-80
2022/10/25 06:34:22;;;;;;;50.35;10.18;;;;;;;12.10;100.00;101316.19;5019580;28;20353;-81
2022/10/25 06:36:48;;;;;;;50.08;9.82;;;;;;;12.11;100.00;101320.53;5034839;28;20106;-81
2022/10/25 06:39:13;;;;;;;50.55;10.57;;;;;;;12.15;100.00;101316.47;5034831;28;20048;-81
2022/10/25 06:41:39;;;;;;;45.50;10.70;;;;;;;12.15;100.00;101319.16;5037729;28;20210;-82
2022/10/25 06:44:05;;;;;;;38.78;8.93;;;;;;;12.15;100.00;101324.56;5036832;28;20440;-79
2022/10/25 06:46:32;;;;;;;51.95;11.00;;;;;;;12.14;100.00;101333.66;5031700;28;20029;-80
2022/10/25 06:48:59;;;;;;;53.30;11.60;;;;;;;12.13;100.00;101332.84;5037449;28;20519;-81
2022/10/25 06:51:26;;;;;;;48.05;11.00;;;;;;;12.16;100.00;101339.72;5037008;28;20064;-81
2022/10/25 06:53:53;;;;;;;51.20;11.57;;;;;;;12.16;100.00;101345.13;5036774;28;20029;-81
2022/10/25 06:56:18;;;;;;;48.88;12.10;;;;;;;12.19;100.00;101355.56;5042140;28;20060;-80
2022/10/25 06:58:44;;;;;;;53.00;13.68;;;;;;;12.24;100.00;101355.84;5035337;28;20034;-79
2022/10/25 07:01:11;;;;;;;43.55;11.82;;;;;;;12.28;100.00;101357.19;5034221;28;20049;-81
2022/10/25 07:03:37;;;;;;;54.95;13.93;;;;;;;12.28;100.00;101358.03;5037065;28;20038;-80
2022/10/25 07:06:10;;;;;;;41.15;12.43;;;;;;;12.35;100.00;101354.59;5037714;28;20041;-81
2022/10/25 07:08:37;;;;;;;50.50;13.20;;;;;;;12.41;100.00;101357.41;5041734;28;20046;-82
2022/10/25 07:11:04;;;;;;;39.53;13.07;;;;;;;12.45;100.00;101357.88;5040773;28;20052;-80
2022/10/25 07:13:30;;;;;;;68.00;15.85;;;;;;;12.44;100.00;101359.75;5034902;28;20058;-80
2022/10/25 07:16:03;;;;;;;47.72;13.05;;;;;;;12.56;100.00;101364.72;5044206;28;20168;-81
2022/10/25 07:18:31;;;;;;;46.85;12.57;;;;;;;12.58;100.00;101368.06;5039382;28;20033;-81
2022/10/25 07:21:00;;;;;;;37.85;10.35;;;;;;;12.57;100.00;101371.81;5042492;28;20551;-82
2022/10/25 07:23:26;;;;;;;40.10;9.93;;;;;;;12.58;100.00;101373.47;5041951;28;20075;-82
2022/10/25 07:25:52;;;;;;;39.65;9.43;;;;;;;12.65;100.00;101363.63;5041726;28;20120;-81
2022/10/25 07:28:17;;;;;;;31.73;10.32;;;;;;;12.75;100.00;101375.00;5040657;28;20080;-82
2022/10/25 07:30:46;;;;;;;40.03;9.75;;;;;;;13.01;100.00;101368.34;5041304;28;20032;-82
2022/10/25 07:33:13;;;;;;;38.10;8.88;;;;;;;13.19;100.00;101374.19;5041594;28;20507;-81
2022/10/25 07:35:38;;;;;;;31.50;9.27;;;;;;;13.51;100.00;101374.91;5045215;28;20033;-81
2022/10/25 07:38:04;;;;;;;28.73;8.43;;;;;;;13.72;100.00;101368.72;5045765;28;20026;-81
2022/10/25 07:40:29;;;;;;;30.60;8.77;;;;;;;13.73;100.00;101367.69;5038785;28;20040;-81
2022/10/25 07:42:54;;;;;;;32.83;9.15;;;;;;;13.55;100.00;101359.97;5038507;28;20040;-81
2022/10/25 07:45:20;;;;;;;25.20;8.70;;;;;;;13.33;100.00;101362.59;5029720;28;20026;-82
2022/10/25 07:47:45;;;;;;;27.25;8.90;;;;;;;13.25;100.00;101370.78;5044366;28;20040;-81
2022/10/25 07:50:10;;;;;;;28.83;9.23;;;;;;;13.18;100.00;101364.44;5039945;28;20071;-82
2022/10/25 07:52:36;;;;;;;34.58;11.30;;;;;;;12.98;100.00;101371.41;5040864;28;20049;-82
2022/10/25 07:55:01;;;;;;;41.28;11.25;;;;;;;12.95;100.00;101365.38;5041234;28;20057;-81
2022/10/25 07:57:26;;;;;;;38.63;12.70;;;;;;;12.99;100.00;101375.81;5037604;28;20044;-81
2022/10/25 07:59:52;;;;;;;36.72;13.43;;;;;;;13.14;100.00;101373.94;5038081;28;20029;-82
2022/10/25 08:02:17;;;;;;;37.08;12.40;;;;;;;13.49;100.00;101376.94;5036755;28;20049;-82
2022/10/25 08:04:43;;;;;;;31.70;10.80;;;;;;;13.91;100.00;101372.69;5045009;28;20034;-80
2022/10/25 08:07:08;;;;;;;29.13;9.18;;;;;;;14.21;100.00;101371.53;5040119;28;20050;-81
2022/10/25 08:09:33;;;;;;;33.75;8.32;;;;;;;14.48;100.00;101378.06;5041248;28;20033;-80
2022/10/25 08:11:59;;;;;;;20.33;6.95;;;;;;;14.41;100.00;101365.47;5038329;28;20029;-81
2022/10/25 08:14:24;;;;;;;20.65;7.57;;;;;;;14.39;100.00;101364.81;5036277;28;20036;-81
2022/10/25 08:16:49;;;;;;;21.35;6.85;;;;;;;14.03;100.00;101373.84;5037741;28;20038;-83
2022/10/25 08:19:15;;;;;;;29.75;7.97;;;;;;;13.83;100.00;101376.34;5037094;28;20026;-81
2022/10/25 08:21:40;;;;;;;24.73;8.27;;;;;;;14.02;100.00;101383.00;5032799;28;20039;-80
2022/10/25 08:24:06;;;;;;;16.30;6.95;;;;;;;14.18;100.00;101387.31;5035851;28;20033;-81
2022/10/25 08:26:31;;;;;;;23.55;7.75;;;;;;;14.44;100.00;101384.03;5034081;28;20029;-82
2022/10/25 08:28:56;;;;;;;26.33;8.13;;;;;;;14.41;100.00;101382.56;5037176;28;20183;-82
2022/10/25 08:31:22;;;;;;;27.75;8.15;;;;;;;14.13;100.00;101389.78;5036701;28;20087;-81
2022/10/25 08:33:47;;;;;;;32.75;8.15;;;;;;;13.99;100.00;101383.38;5036432;28;20041;-80
2022/10/25 08:36:12;;;;;;;19.75;8.45;;;;;;;13.79;100.00;101389.38;5036549;28;20103;-81
2022/10/25 08:38:38;;;;;;;28.63;8.77;;;;;;;13.65;100.00;101406.50;5037956;28;20033;-83
2022/10/25 08:41:21;;;;;;;31.50;9.18;;;;;;;13.56;100.00;101394.94;5036430;28;20128;-82
2022/10/25 08:44:04;;;;;;;22.88;9.60;;;;;;;13.47;100.00;101400.63;5037768;28;20040;-81
2022/10/25 08:47:18;;;;;;;40.22;11.30;;;;;;;13.56;100.00;101399.47;5020279;28;20354;-81
2022/10/25 08:49:57;;;;;;;30.27;10.73;;;;;;;13.77;100.00;101410.41;4955829;28;20167;-82
2022/10/25 08:52:45;;;;;;;29.17;10.10;;;;;;;14.15;100.00;101410.19;4942238;29;20039;-82
2022/10/25 08:55:20;;;;;;;37.10;10.00;;;;;;;14.47;100.00;101402.59;5018184;28;20201;-81
2022/10/25 08:57:48;;;;;;;20.27;9.55;;;;;;;14.58;100.00;101399.41;5033581;28;20045;-82
2022/10/25 09:00:21;;;;;;;21.92;9.90;;;;;;;14.74;100.00;101398.28;5041969;28;20175;-79
2022/10/25 09:02:54;;;;;;;24.58;9.57;;;;;;;14.90;100.00;101398.03;5042806;28;20037;-82
2022/10/25 09:05:28;;;;;;;24.85;10.27;;;;;;;15.05;100.00;101389.78;5042466;28;20021;-82
2022/10/25 09:08:14;;;;;;;24.60;9.93;;;;;;;15.25;100.00;101392.63;5042680;28;20037;-82
2022/10/25 09:11:05;;;;;;;36.05;10.43;;;;;;;15.11;100.00;101396.28;5042042;28;20036;-81
2022/10/25 09:13:52;;;;;;;23.88;9.98;;;;;;;14.98;100.00;101391.63;5039176;28;20049;-82
2022/10/25 09:16:18;;;;;;;25.73;9.52;;;;;;;14.99;100.00;101401.41;5036082;28;20028;-83
2022/10/25 09:18:53;;;;;;;21.30;8.38;;;;;;;14.97;100.00;101395.34;5035896;28;20017;-82
2022/10/25 09:21:27;;;;;;;22.33;7.88;;;;;;;14.90;100.00;101411.56;5035493;28;20462;-82
2022/10/25 09:23:57;;;;;;;22.15;8.80;;;;;;;14.60;100.00;101416.31;5037228;28;20025;-82
2022/10/25 09:26:39;;;;;;;20.15;8.95;;;;;;;14.37;100.00;101418.34;5037936;28;20033;-82
2022/10/25 09:29:09;;;;;;;23.92;9.45;;;;;;;14.34;100.00;101429.56;5036156;28;20029;-82
2022/10/25 09:31:39;;;;;;;23.25;10.52;;;;;;;14.17;100.00;101435.22;5036574;28;20025;-82
2022/10/25 09:34:06;;;;;;;27.13;10.38;;;;;;;14.17;100.00;101437.94;5036080;28;20504;-81
2022/10/25 09:36:37;;;;;;;22.80;10.95;;;;;;;14.10;100.00;101439.72;5033312;28;20053;-81
2022/10/25 09:39:10;;;;;;;24.30;10.63;;;;;;;14.06;100.00;101438.44;5037520;28;20608;-82
2022/10/25 09:41:41;;;;;;;22.63;10.45;;;;;;;14.06;100.00;101446.56;5041732;28;20034;-81
2022/10/25 09:44:33;;;;;;;25.33;10.40;;;;;;;14.12;100.00;101450.38;5036748;28;20055;-81
2022/10/25 09:47:11;;;;;;;34.53;11.65;;;;;;;14.01;100.00;101449.00;5039222;28;20041;-83
2022/10/25 09:49:43;;;;;;;29.02;11.50;;;;;;;14.11;100.00;101452.19;5040207;28;20045;-82
2022/10/25 09:52:29;;;;;;;38.17;11.13;;;;;;;14.26;100.00;101444.06;5036043;28;20492;-81
2022/10/25 09:55:10;;;;;;;24.57;10.80;;;;;;;14.30;100.00;101445.34;5040705;28;20087;-81
2022/10/25 09:57:36;;;;;;;28.23;11.32;;;;;;;14.35;100.00;101447.47;5044829;28;20552;-82
2022/10/25 10:00:01;;;;;;;29.40;12.20;;;;;;;14.26;100.00;101442.19;5043797;28;20061;-81
2022/10/25 10:02:26;;;;;;;25.48;11.98;;;;;;;14.39;100.00;101452.31;5043137;28;20073;-81
2022/10/25 10:04:52;;;;;;;32.53;11.27;;;;;;;14.56;100.00;101461.09;5040788;28;20037;-82
2022/10/25 10:07:20;;;;;;;27.90;11.63;;;;;;;14.65;100.00;101461.78;5042519;28;20053;-82
2022/10/25 10:09:46;;;;;;;32.67;11.02;;;;;;;14.73;100.00;101450.81;5041354;28;20064;-82
2022/10/25 10:13:03;;;;;;;26.70;10.65;;;;;;;14.87;100.00;101455.31;5036496;28;20026;-83
2022/10/25 10:15:37;;;;;;;29.27;10.63;;;;;;;14.92;100.00;101454.72;5005221;28;20041;-82
2022/10/25 10:18:21;;;;;;;30.83;10.00;;;;;;;15.10;100.00;101455.06;5037785;28;20025;-81
2022/10/25 10:21:00;;;;;;;20.60;7.45;;;;;;;15.27;100.00;101457.47;5038838;28;20025;-81
2022/10/25 10:23:28;;;;;;;25.42;7.05;;;;;;;15.38;100.00;101454.25;5036328;28;20033;-82
2022/10/25 10:25:54;;;;;;;;;;;;;;;15.14;100.00;101456.38;5038620;28;20029;-81
2022/10/25 10:28:19;;;;;;;26.13;6.80;;;;;;;15.24;100.00;101452.47;5037481;28;20360;-81
2022/10/25 10:30:52;;;;;;;24.00;6.88;;;;;;;15.05;100.00;101462.13;5040756;28;20025;-81
2022/10/25 10:33:18;;;;;;;25.00;6.68;;;;;;;14.89;100.00;101460.53;5026389;28;20025;-81
2022/10/25 10:35:43;;;;;;;18.85;6.38;;;;;;;15.03;100.00;101459.59;5027308;28;20034;-82
2022/10/25 10:38:25;;;;;;;31.23;8.25;;;;;;;14.94;100.00;101452.66;5018287;28;20036;-82
2022/10/25 10:41:12;;;;;;;25.50;7.78;;;;;;;15.01;100.00;101466.25;5039081;28;20061;-81
2022/10/25 10:43:38;;;;;;;27.08;7.50;;;;;;;15.13;100.00;101468.22;5038592;28;20147;-81
2022/10/25 10:46:08;;;;;;;23.33;7.32;;;;;;;15.20;100.00;101467.47;5038759;28;20021;-82
2022/10/25 10:48:37;;;;;;;25.35;7.32;;;;;;;15.25;100.00;101465.84;5019947;28;20512;-82
2022/10/25 10:51:02;;;;;;;28.25;7.22;;;;;;;15.52;100.00;101466.84;5035415;28;20033;-81
2022/10/25 10:53:30;;;;;;;28.52;6.63;;;;;;;15.83;100.00;101462.88;5039064;28;20182;-81
2022/10/25 10:56:04;;;;;;;20.88;6.00;;;;;;;15.91;100.00;101460.00;5033879;28;20040;-81
2022/10/25 10:58:30;;;;;;;22.58;5.30;;;;;;;15.80;100.00;101444.28;5031159;28;20052;-82
2022/10/25 11:01:02;;;;;;;24.83;5.85;;;;;;;16.01;100.00;101460.44;5037019;28;20428;-81
2022/10/25 11:03:40;;;;;;;27.27;5.47;;;;;;;15.87;100.00;101447.84;5039689;28;20036;-82
2022/10/25 11:06:07;;;;;;;;;;;;;;;15.82;100.00;101446.78;5024039;28;20397;-82
2022/10/25 11:08:32;;;;;;;22.67;5.25;;;;;;;15.83;100.00;101446.59;5036859;28;19917;-82
2022/10/25 11:11:11;;;;;;;29.60;5.03;;;;;;;15.69;99.45;101452.97;5037723;28;20195;-81
2022/10/25 11:13:36;;;;;;;29.55;5.25;;;;;;;15.72;100.00;101450.72;5039596;28;20065;-81
2022/10/25 11:16:41;;;;;;;27.77;4.68;;;;;;;15.93;99.95;101444.34;5041102;28;20026;-80
2022/10/25 11:19:09;;;;;;;24.42;3.72;;;;;;;16.23;99.83;101442.13;5029915;28;20056;-81